createdAt,value
2019-01-24T00:00:27.918Z,0
2019-01-24T00:01:28.621Z,0
2019-01-24T00:02:29.326Z,0
2019-01-24T00:03:30.319Z,0
2019-01-24T00:04:31.377Z,0
2019-01-24T00:05:32.111Z,0
2019-01-24T00:06:32.816Z,0
2019-01-24T00:07:33.875Z,0
2019-01-24T00:08:34.577Z,0
2019-01-24T00:09:35.600Z,0
2019-01-24T00:10:36.591Z,0
2019-01-24T00:11:37.356Z,0
2019-01-24T00:12:38.062Z,0
2019-01-24T00:13:38.771Z,0
2019-01-24T00:14:39.484Z,0
2019-01-24T00:15:40.202Z,0
2019-01-24T00:16:40.904Z,0
2019-01-24T00:17:41.617Z,0
2019-01-24T00:18:42.328Z,0
2019-01-24T00:19:43.030Z,0
2019-01-24T00:20:43.745Z,0
2019-01-24T00:21:44.449Z,0
2019-01-24T00:22:45.145Z,0
2019-01-24T00:23:46.098Z,0
2019-01-24T00:24:47.053Z,0
2019-01-24T00:25:47.799Z,0
2019-01-24T00:26:48.503Z,0
2019-01-24T00:27:49.213Z,0
2019-01-24T00:28:49.903Z,0
2019-01-24T00:29:50.619Z,0
2019-01-24T00:30:51.973Z,0
2019-01-24T00:31:52.841Z,0
2019-01-24T00:32:53.536Z,0
2019-01-24T00:33:54.262Z,0
2019-01-24T00:34:54.951Z,0
2019-01-24T00:35:55.677Z,0
2019-01-24T00:36:56.429Z,0
2019-01-24T00:37:57.086Z,0
2019-01-24T00:38:57.801Z,0
2019-01-24T00:39:58.507Z,0
2019-01-24T00:40:59.218Z,0
2019-01-24T00:41:59.925Z,0
2019-01-24T00:43:00.624Z,0
2019-01-24T00:44:01.327Z,0
2019-01-24T00:45:02.040Z,0
2019-01-24T00:46:02.755Z,0
2019-01-24T00:47:03.457Z,0
2019-01-24T00:48:04.306Z,0
2019-01-24T00:49:05.014Z,0
2019-01-24T00:50:05.723Z,0
2019-01-24T00:51:06.420Z,0
2019-01-24T00:52:07.122Z,0
2019-01-24T00:53:07.827Z,0
2019-01-24T00:54:08.534Z,0
2019-01-24T00:55:09.241Z,0
2019-01-24T00:56:09.945Z,0
2019-01-24T00:57:10.650Z,0
2019-01-24T00:58:11.364Z,0
2019-01-24T00:59:12.066Z,0
2019-01-24T01:00:12.800Z,0
2019-01-24T01:01:13.491Z,0
2019-01-24T01:02:14.203Z,0
2019-01-24T01:03:14.906Z,0
2019-01-24T01:04:15.632Z,0
2019-01-24T01:05:16.346Z,0
2019-01-24T01:06:17.051Z,0
2019-01-24T01:07:17.748Z,0
2019-01-24T01:08:18.464Z,0
2019-01-24T01:09:19.158Z,0
2019-01-24T01:10:19.860Z,0
2019-01-24T01:11:20.557Z,0
2019-01-24T01:12:21.255Z,0
2019-01-24T01:13:21.957Z,0
2019-01-24T01:14:22.661Z,0
2019-01-24T01:15:23.359Z,0
2019-01-24T01:16:24.067Z,0
2019-01-24T01:17:24.766Z,0
2019-01-24T01:18:25.471Z,0
2019-01-24T01:19:26.173Z,0
2019-01-24T01:20:26.875Z,0
2019-01-24T01:21:27.587Z,0
2019-01-24T01:22:28.297Z,0
2019-01-24T01:23:28.991Z,0
2019-01-24T01:24:29.695Z,0
2019-01-24T01:25:30.403Z,0
2019-01-24T01:26:31.107Z,0
2019-01-24T01:27:31.855Z,0
2019-01-24T01:28:32.577Z,0
2019-01-24T01:29:33.279Z,0
2019-01-24T01:30:33.984Z,0
2019-01-24T01:31:34.693Z,0
2019-01-24T01:32:35.502Z,0
2019-01-24T01:33:36.212Z,0
2019-01-24T01:34:36.920Z,0
2019-01-24T01:35:37.623Z,0
2019-01-24T01:36:38.334Z,0
2019-01-24T01:37:39.029Z,0
2019-01-24T01:38:39.739Z,0
2019-01-24T01:39:40.444Z,0
2019-01-24T01:40:41.133Z,0
2019-01-24T01:41:42.094Z,0
2019-01-24T01:42:42.787Z,0
2019-01-24T01:43:43.486Z,0
2019-01-24T01:44:44.246Z,0
2019-01-24T01:45:45.085Z,0
2019-01-24T01:46:45.769Z,0
2019-01-24T01:47:46.723Z,0
2019-01-24T01:48:47.421Z,0
2019-01-24T01:49:48.296Z,0
2019-01-24T01:50:49.200Z,0
2019-01-24T01:51:50.083Z,0
2019-01-24T01:52:51.735Z,0
2019-01-24T01:53:52.578Z,0
2019-01-24T01:54:53.504Z,0
2019-01-24T01:55:54.749Z,0
2019-01-24T01:56:55.571Z,0
2019-01-24T01:57:56.264Z,0
2019-01-24T01:58:57.067Z,0
2019-01-24T01:59:58.295Z,0
2019-01-24T02:00:58.990Z,0
2019-01-24T02:01:59.689Z,0
2019-01-24T02:03:00.487Z,0
2019-01-24T02:04:01.218Z,0
2019-01-24T02:05:01.936Z,0
2019-01-24T02:06:02.652Z,0
2019-01-24T02:07:03.365Z,0
2019-01-24T02:08:04.067Z,0
2019-01-24T02:09:04.770Z,0
2019-01-24T02:10:05.469Z,0
2019-01-24T02:11:06.172Z,0
2019-01-24T02:12:06.941Z,0
2019-01-24T02:13:07.649Z,0
2019-01-24T02:14:08.361Z,0
2019-01-24T02:15:09.057Z,0
2019-01-24T02:16:09.776Z,0
2019-01-24T02:17:10.485Z,0
2019-01-24T02:18:11.180Z,0
2019-01-24T02:19:11.894Z,0
2019-01-24T02:20:12.863Z,0
2019-01-24T02:21:13.562Z,0
2019-01-24T02:22:14.279Z,0
2019-01-24T02:23:14.977Z,0
2019-01-24T02:24:15.692Z,0
2019-01-24T02:25:16.404Z,0
2019-01-24T02:26:17.099Z,0
2019-01-24T02:27:17.810Z,0
2019-01-24T02:28:18.512Z,0
2019-01-24T02:29:19.201Z,0
2019-01-24T02:30:19.919Z,0
2019-01-24T02:31:20.617Z,0
2019-01-24T02:32:21.321Z,0
2019-01-24T02:33:22.026Z,0
2019-01-24T02:34:22.734Z,0
2019-01-24T02:35:23.443Z,0
2019-01-24T02:36:24.162Z,0
2019-01-24T02:37:24.861Z,0
2019-01-24T02:38:25.555Z,0
2019-01-24T02:39:26.262Z,0
2019-01-24T02:40:26.980Z,0
2019-01-24T02:41:27.687Z,0
2019-01-24T02:42:28.398Z,0
2019-01-24T02:43:29.100Z,0
2019-01-24T02:44:29.806Z,0
2019-01-24T02:45:30.520Z,0
2019-01-24T02:46:31.239Z,0
2019-01-24T02:47:31.930Z,0
2019-01-24T02:48:32.626Z,0
2019-01-24T02:49:33.347Z,0
2019-01-24T02:50:34.051Z,0
2019-01-24T02:51:34.756Z,0
2019-01-24T02:52:35.460Z,0
2019-01-24T02:53:36.163Z,0
2019-01-24T02:54:36.883Z,0
2019-01-24T02:55:37.572Z,0
2019-01-24T02:56:38.272Z,0
2019-01-24T02:57:39.224Z,0
2019-01-24T02:58:39.939Z,0
2019-01-24T02:59:40.641Z,0
2019-01-24T03:00:41.352Z,0
2019-01-24T03:01:42.058Z,0
2019-01-24T03:02:42.761Z,0
2019-01-24T03:03:43.459Z,0
2019-01-24T03:04:44.152Z,0
2019-01-24T03:05:44.892Z,0
2019-01-24T03:06:45.638Z,0
2019-01-24T03:07:46.357Z,0
2019-01-24T03:08:47.057Z,0
2019-01-24T03:09:47.771Z,0
2019-01-24T03:10:48.472Z,0
2019-01-24T03:11:49.239Z,0
2019-01-24T03:12:49.954Z,0
2019-01-24T03:13:50.641Z,0
2019-01-24T03:14:51.352Z,0
2019-01-24T03:15:52.065Z,0
2019-01-24T03:16:52.773Z,0
2019-01-24T03:17:53.472Z,0
2019-01-24T03:18:54.195Z,0
2019-01-24T03:19:54.914Z,0
2019-01-24T03:20:55.605Z,0
2019-01-24T03:21:56.301Z,0
2019-01-24T03:22:57.009Z,0
2019-01-24T03:23:57.714Z,0
2019-01-24T03:24:58.421Z,0
2019-01-24T03:25:59.136Z,0
2019-01-24T03:26:59.839Z,0
2019-01-24T03:28:00.582Z,0
2019-01-24T03:29:01.274Z,0
2019-01-24T03:30:01.992Z,0
2019-01-24T03:31:02.703Z,0
2019-01-24T03:32:03.409Z,0
2019-01-24T03:33:04.116Z,0
2019-01-24T03:34:04.832Z,0
2019-01-24T03:35:05.546Z,0
2019-01-24T03:36:06.249Z,0
2019-01-24T03:37:06.953Z,0
2019-01-24T03:38:07.661Z,0
2019-01-24T03:39:08.358Z,0
2019-01-24T03:40:09.069Z,0
2019-01-24T03:41:09.789Z,0
2019-01-24T03:42:10.501Z,0
2019-01-24T03:43:11.205Z,0
2019-01-24T03:44:11.923Z,0
2019-01-24T03:45:12.615Z,0
2019-01-24T03:46:13.337Z,0
2019-01-24T03:47:14.041Z,0
2019-01-24T03:48:14.747Z,0
2019-01-24T03:49:15.458Z,0
2019-01-24T03:50:16.160Z,0
2019-01-24T03:51:16.875Z,0
2019-01-24T03:52:17.564Z,0
2019-01-24T03:53:18.534Z,0
2019-01-24T03:54:19.223Z,0
2019-01-24T03:55:19.936Z,0
2019-01-24T03:56:20.634Z,0
2019-01-24T03:57:21.398Z,0
2019-01-24T03:58:22.106Z,0
2019-01-24T03:59:22.814Z,0
2019-01-24T04:00:23.525Z,0
2019-01-24T04:01:24.229Z,0
2019-01-24T04:02:24.936Z,0
2019-01-24T04:03:25.641Z,0
2019-01-24T04:04:26.352Z,0
2019-01-24T04:05:27.068Z,0
2019-01-24T04:06:27.773Z,0
2019-01-24T04:07:28.515Z,0
2019-01-24T04:08:29.217Z,0
2019-01-24T04:09:29.922Z,0
2019-01-24T04:10:30.626Z,0
2019-01-24T04:11:31.345Z,0
2019-01-24T04:12:32.057Z,0
2019-01-24T04:13:32.762Z,0
2019-01-24T04:14:33.513Z,0
2019-01-24T04:15:34.215Z,0
2019-01-24T04:16:34.921Z,0
2019-01-24T04:17:35.627Z,0
2019-01-24T04:18:36.326Z,0
2019-01-24T04:19:37.127Z,0
2019-01-24T04:20:37.834Z,0
2019-01-24T04:21:38.544Z,0
2019-01-24T04:22:39.245Z,0
2019-01-24T04:23:39.963Z,0
2019-01-24T04:24:40.672Z,0
2019-01-24T04:25:41.380Z,0
2019-01-24T04:26:42.089Z,0
2019-01-24T04:27:42.797Z,0
2019-01-24T04:28:43.491Z,0
2019-01-24T04:29:44.207Z,0
2019-01-24T04:30:44.911Z,0
2019-01-24T04:31:45.640Z,0
2019-01-24T04:32:46.333Z,0
2019-01-24T04:33:47.061Z,0
2019-01-24T04:34:47.757Z,0
2019-01-24T04:35:48.737Z,0
2019-01-24T04:36:49.427Z,0
2019-01-24T04:37:50.135Z,0
2019-01-24T04:38:50.840Z,0
2019-01-24T04:39:51.541Z,0
2019-01-24T04:40:52.238Z,0
2019-01-24T04:41:52.970Z,0
2019-01-24T04:42:53.665Z,0
2019-01-24T04:43:54.378Z,0
2019-01-24T04:44:55.098Z,0
2019-01-24T04:45:55.802Z,0
2019-01-24T04:46:56.506Z,0
2019-01-24T04:47:57.215Z,0
2019-01-24T04:48:57.919Z,0
2019-01-24T04:49:58.620Z,0
2019-01-24T04:50:59.328Z,0
2019-01-24T04:52:00.025Z,0
2019-01-24T04:53:00.777Z,0
2019-01-24T04:54:01.472Z,0
2019-01-24T04:55:02.174Z,0
2019-01-24T04:56:02.884Z,0
2019-01-24T04:57:03.592Z,0
2019-01-24T04:58:04.295Z,0
2019-01-24T04:59:04.991Z,0
2019-01-24T05:00:05.958Z,0
2019-01-24T05:01:06.652Z,0
2019-01-24T05:02:07.353Z,0
2019-01-24T05:03:08.067Z,0
2019-01-24T05:04:08.766Z,0
2019-01-24T05:05:09.721Z,0
2019-01-24T05:06:10.440Z,0
2019-01-24T05:07:11.175Z,0
2019-01-24T05:08:11.886Z,0
2019-01-24T05:09:12.595Z,0
2019-01-24T05:10:13.413Z,0
2019-01-24T05:11:14.108Z,0
2019-01-24T05:12:14.806Z,0
2019-01-24T05:13:15.516Z,0
2019-01-24T05:14:16.219Z,0
2019-01-24T05:15:16.920Z,0
2019-01-24T05:16:17.625Z,0
2019-01-24T05:17:18.332Z,0
2019-01-24T05:18:19.036Z,0
2019-01-24T05:19:19.735Z,0
2019-01-24T05:20:20.443Z,0
2019-01-24T05:21:21.159Z,0
2019-01-24T05:22:21.851Z,0
2019-01-24T05:23:22.544Z,0
2019-01-24T05:24:23.246Z,0
2019-01-24T05:25:23.948Z,0
2019-01-24T05:26:24.806Z,0
2019-01-24T05:27:25.566Z,0
2019-01-24T05:28:26.259Z,0
2019-01-24T05:29:26.962Z,0
2019-01-24T05:30:27.662Z,0
2019-01-24T05:31:28.365Z,0
2019-01-24T05:32:29.065Z,0
2019-01-24T05:33:29.764Z,0
2019-01-24T05:34:30.461Z,0
2019-01-24T05:35:34.882Z,0
2019-01-24T05:36:31.881Z,0
2019-01-24T05:37:32.590Z,0
2019-01-24T05:38:33.296Z,0
2019-01-24T05:39:34.000Z,0
2019-01-24T05:40:34.709Z,0
2019-01-24T05:41:35.409Z,0
2019-01-24T05:42:36.115Z,0
2019-01-24T05:43:36.829Z,0
2019-01-24T05:44:37.546Z,0
2019-01-24T05:45:38.244Z,0
2019-01-24T05:46:39.201Z,0
2019-01-24T05:47:39.910Z,0
2019-01-24T05:48:40.687Z,0
2019-01-24T05:49:41.423Z,0
2019-01-24T05:50:42.110Z,0
2019-01-24T05:51:42.814Z,0
2019-01-24T05:52:43.520Z,0
2019-01-24T05:53:44.283Z,0
2019-01-24T05:54:45.001Z,0
2019-01-24T05:55:45.707Z,0
2019-01-24T05:56:46.430Z,0
2019-01-24T05:57:47.125Z,0
2019-01-24T05:58:47.829Z,0
2019-01-24T05:59:48.527Z,0
2019-01-24T06:00:49.224Z,0
2019-01-24T06:01:49.960Z,0
2019-01-24T06:02:50.675Z,0
2019-01-24T06:03:51.388Z,0
2019-01-24T06:04:52.098Z,0
2019-01-24T06:05:52.797Z,0
2019-01-24T06:06:53.494Z,0
2019-01-24T06:07:54.184Z,0
2019-01-24T06:08:54.894Z,0
2019-01-24T06:09:55.597Z,0
2019-01-24T06:10:56.303Z,0
2019-01-24T06:11:57.010Z,0
2019-01-24T06:12:57.717Z,0
2019-01-24T06:13:58.430Z,0
2019-01-24T06:14:59.122Z,0
2019-01-24T06:15:59.868Z,0
2019-01-24T06:17:00.569Z,0
2019-01-24T06:18:02.445Z,0
2019-01-24T06:19:01.983Z,0
2019-01-24T06:20:02.680Z,0
2019-01-24T06:21:03.391Z,0
2019-01-24T06:22:04.145Z,0
2019-01-24T06:23:04.899Z,0
2019-01-24T06:24:05.609Z,0
2019-01-24T06:25:06.317Z,0
2019-01-24T06:26:07.290Z,0
2019-01-24T06:27:07.984Z,0
2019-01-24T06:28:08.688Z,0
2019-01-24T06:29:09.402Z,0
2019-01-24T06:30:10.093Z,0
2019-01-24T06:31:10.794Z,0
2019-01-24T06:32:11.498Z,0
2019-01-24T06:33:12.201Z,0
2019-01-24T06:34:13.154Z,0
2019-01-24T06:35:13.863Z,0
2019-01-24T06:36:14.561Z,0
2019-01-24T06:37:15.330Z,0
2019-01-24T06:38:16.036Z,0
2019-01-24T06:39:16.730Z,0
2019-01-24T06:40:17.444Z,0
2019-01-24T06:41:18.148Z,0
2019-01-24T06:42:19.092Z,0
2019-01-24T06:43:19.793Z,0
2019-01-24T06:44:20.506Z,0
2019-01-24T06:45:21.209Z,0
2019-01-24T06:46:22.155Z,0
2019-01-24T06:47:22.872Z,0
2019-01-24T06:48:23.825Z,0
2019-01-24T06:49:24.529Z,0
2019-01-24T06:50:25.235Z,0
2019-01-24T06:51:26.200Z,0
2019-01-24T06:52:26.900Z,0
2019-01-24T06:53:27.614Z,0
2019-01-24T06:54:28.561Z,0
2019-01-24T06:55:29.263Z,0
2019-01-24T06:56:29.971Z,0
2019-01-24T06:57:30.674Z,0
2019-01-24T06:58:31.533Z,0
2019-01-24T06:59:32.245Z,0
2019-01-24T07:00:33.076Z,0
2019-01-24T07:01:33.778Z,0
2019-01-24T07:02:34.798Z,0
2019-01-24T07:03:35.499Z,0
2019-01-24T07:04:36.261Z,0
2019-01-24T07:05:36.989Z,0
2019-01-24T07:06:37.696Z,0
2019-01-24T07:07:38.406Z,0
2019-01-24T07:08:39.103Z,0
2019-01-24T07:09:39.826Z,0
2019-01-24T07:10:40.550Z,0
2019-01-24T07:11:41.253Z,0
2019-01-24T07:12:42.227Z,0
2019-01-24T07:13:42.939Z,0
2019-01-24T07:14:43.631Z,0
2019-01-24T07:15:44.439Z,0
2019-01-24T07:16:45.138Z,0
2019-01-24T07:17:45.839Z,0
2019-01-24T07:18:46.546Z,0
2019-01-24T07:19:47.247Z,0
2019-01-24T07:20:47.958Z,5
2019-01-24T07:21:48.670Z,5
2019-01-24T07:22:49.374Z,5
2019-01-24T07:23:50.084Z,5
2019-01-24T07:24:50.799Z,5
2019-01-24T07:25:51.503Z,5
2019-01-24T07:26:52.203Z,5
2019-01-24T07:27:52.921Z,5
2019-01-24T07:28:53.618Z,5
2019-01-24T07:29:54.340Z,5
2019-01-24T07:30:55.055Z,5
2019-01-24T07:31:55.762Z,5
2019-01-24T07:32:56.470Z,11
2019-01-24T07:33:57.181Z,11
2019-01-24T07:34:57.873Z,11
2019-01-24T07:36:02.185Z,11
2019-01-24T07:36:59.284Z,11
2019-01-24T07:37:59.984Z,11
2019-01-24T07:39:00.684Z,16
2019-01-24T07:40:01.423Z,16
2019-01-24T07:41:02.114Z,16
2019-01-24T07:42:02.821Z,16
2019-01-24T07:43:03.520Z,16
2019-01-24T07:44:04.327Z,16
2019-01-24T07:45:05.033Z,22
2019-01-24T07:46:05.742Z,22
2019-01-24T07:47:06.451Z,22
2019-01-24T07:48:07.150Z,22
2019-01-24T07:49:07.869Z,22
2019-01-24T07:50:08.575Z,22
2019-01-24T07:51:09.272Z,22
2019-01-24T07:52:09.970Z,22
2019-01-24T07:53:10.678Z,22
2019-01-24T07:54:11.393Z,28
2019-01-24T07:55:12.357Z,28
2019-01-24T07:56:13.046Z,28
2019-01-24T07:57:13.748Z,28
2019-01-24T07:58:14.469Z,28
2019-01-24T07:59:15.170Z,33
2019-01-24T08:00:15.879Z,33
2019-01-24T08:01:16.583Z,33
2019-01-24T08:02:17.532Z,33
2019-01-24T08:03:18.248Z,33
2019-01-24T08:04:18.966Z,39
2019-01-24T08:05:19.675Z,39
2019-01-24T08:06:20.385Z,39
2019-01-24T08:07:21.092Z,39
2019-01-24T08:08:21.802Z,39
2019-01-24T08:09:22.500Z,39
2019-01-24T08:10:23.210Z,39
2019-01-24T08:11:23.913Z,39
2019-01-24T08:12:24.613Z,45
2019-01-24T08:13:25.334Z,45
2019-01-24T08:14:26.042Z,45
2019-01-24T08:15:26.896Z,50
2019-01-24T08:16:27.605Z,50
2019-01-24T08:17:28.312Z,50
2019-01-24T08:18:29.016Z,56
2019-01-24T08:19:29.987Z,56
2019-01-24T08:20:30.684Z,61
2019-01-24T08:21:31.409Z,67
2019-01-24T08:22:32.131Z,67
2019-01-24T08:23:32.832Z,67
2019-01-24T08:24:33.543Z,67
2019-01-24T08:25:34.265Z,67
2019-01-24T08:26:34.987Z,67
2019-01-24T08:27:35.693Z,67
2019-01-24T08:28:36.444Z,73
2019-01-24T08:29:37.190Z,73
2019-01-24T08:30:37.949Z,67
2019-01-24T08:31:38.649Z,73
2019-01-24T08:32:39.366Z,73
2019-01-24T08:33:40.084Z,78
2019-01-24T08:34:40.795Z,73
2019-01-24T08:35:41.545Z,78
2019-01-24T08:36:42.256Z,78
2019-01-24T08:37:42.964Z,78
2019-01-24T08:38:43.702Z,78
2019-01-24T08:39:44.423Z,78
2019-01-24T08:40:45.135Z,78
2019-01-24T08:41:45.848Z,78
2019-01-24T08:42:46.553Z,78
2019-01-24T08:43:47.278Z,78
2019-01-24T08:44:47.982Z,78
2019-01-24T08:45:48.699Z,78
2019-01-24T08:46:49.407Z,78
2019-01-24T08:47:50.100Z,78
2019-01-24T08:48:50.820Z,78
2019-01-24T08:49:51.546Z,84
2019-01-24T08:50:52.249Z,84
2019-01-24T08:51:53.238Z,84
2019-01-24T08:52:53.938Z,84
2019-01-24T08:53:54.647Z,84
2019-01-24T08:54:55.427Z,84
2019-01-24T08:55:56.254Z,90
2019-01-24T08:56:57.000Z,101
2019-01-24T08:57:57.690Z,106
2019-01-24T08:58:58.413Z,112
2019-01-24T08:59:59.164Z,112
2019-01-24T09:00:59.994Z,112
2019-01-24T09:02:00.697Z,106
2019-01-24T09:03:01.413Z,112
2019-01-24T09:04:02.116Z,123
2019-01-24T09:05:02.829Z,129
2019-01-24T09:06:03.541Z,129
2019-01-24T09:07:04.254Z,135
2019-01-24T09:08:04.970Z,135
2019-01-24T09:09:05.680Z,135
2019-01-24T09:10:06.403Z,135
2019-01-24T09:11:07.112Z,140
2019-01-24T09:12:07.878Z,146
2019-01-24T09:13:08.549Z,151
2019-01-24T09:14:09.260Z,151
2019-01-24T09:15:09.965Z,157
2019-01-24T09:16:10.676Z,157
2019-01-24T09:17:11.377Z,168
2019-01-24T09:18:12.091Z,180
2019-01-24T09:19:12.819Z,185
2019-01-24T09:20:13.513Z,185
2019-01-24T09:21:14.223Z,191
2019-01-24T09:22:14.939Z,191
2019-01-24T09:23:15.690Z,196
2019-01-24T09:24:16.445Z,202
2019-01-24T09:25:17.159Z,202
2019-01-24T09:26:17.862Z,208
2019-01-24T09:27:18.581Z,208
2019-01-24T09:28:19.448Z,208
2019-01-24T09:29:20.157Z,208
2019-01-24T09:30:20.866Z,213
2019-01-24T09:31:21.580Z,213
2019-01-24T09:32:22.285Z,213
2019-01-24T09:33:22.986Z,225
2019-01-24T09:34:23.697Z,225
2019-01-24T09:35:24.412Z,225
2019-01-24T09:36:29.189Z,225
2019-01-24T09:37:25.831Z,225
2019-01-24T09:38:26.538Z,230
2019-01-24T09:39:27.849Z,236
2019-01-24T09:40:28.565Z,247
2019-01-24T09:41:29.272Z,253
2019-01-24T09:42:29.987Z,258
2019-01-24T09:43:30.703Z,258
2019-01-24T09:44:31.426Z,258
2019-01-24T09:45:32.143Z,258
2019-01-24T09:46:32.861Z,264
2019-01-24T09:47:33.673Z,275
2019-01-24T09:48:34.384Z,286
2019-01-24T09:49:35.092Z,286
2019-01-24T09:50:35.822Z,292
2019-01-24T09:51:36.528Z,286
2019-01-24T09:52:37.237Z,298
2019-01-24T09:53:37.955Z,309
2019-01-24T09:54:38.660Z,343
2019-01-24T09:55:39.644Z,320
2019-01-24T09:56:40.342Z,331
2019-01-24T09:57:41.046Z,320
2019-01-24T09:58:41.747Z,326
2019-01-24T09:59:42.464Z,337
2019-01-24T10:00:43.175Z,371
2019-01-24T10:01:43.892Z,365
2019-01-24T10:02:44.593Z,371
2019-01-24T10:03:45.302Z,371
2019-01-24T10:04:46.015Z,376
2019-01-24T10:05:46.787Z,382
2019-01-24T10:06:47.507Z,393
2019-01-24T10:07:48.223Z,376
2019-01-24T10:08:48.930Z,382
2019-01-24T10:09:49.648Z,365
2019-01-24T10:10:50.357Z,371
2019-01-24T10:11:51.095Z,354
2019-01-24T10:12:51.805Z,348
2019-01-24T10:13:53.047Z,343
2019-01-24T10:14:53.744Z,348
2019-01-24T10:15:54.458Z,337
2019-01-24T10:16:55.223Z,348
2019-01-24T10:17:55.935Z,371
2019-01-24T10:18:56.648Z,371
2019-01-24T10:19:57.361Z,365
2019-01-24T10:20:58.060Z,365
2019-01-24T10:21:58.779Z,360
2019-01-24T10:22:59.532Z,354
2019-01-24T10:24:00.258Z,360
2019-01-24T10:25:00.961Z,365
2019-01-24T10:26:01.675Z,360
2019-01-24T10:27:02.385Z,365
2019-01-24T10:28:03.169Z,371
2019-01-24T10:29:03.877Z,360
2019-01-24T10:30:04.592Z,354
2019-01-24T10:31:05.297Z,365
2019-01-24T10:32:06.008Z,371
2019-01-24T10:33:06.719Z,365
2019-01-24T10:34:07.437Z,354
2019-01-24T10:35:08.147Z,343
2019-01-24T10:36:08.861Z,343
2019-01-24T10:37:09.568Z,348
2019-01-24T10:38:10.279Z,337
2019-01-24T10:39:10.993Z,326
2019-01-24T10:40:11.856Z,331
2019-01-24T10:41:12.818Z,331
2019-01-24T10:42:13.668Z,326
2019-01-24T10:43:14.384Z,320
2019-01-24T10:44:15.183Z,331
2019-01-24T10:45:15.895Z,343
2019-01-24T10:46:16.612Z,348
2019-01-24T10:47:17.326Z,337
2019-01-24T10:48:18.046Z,331
2019-01-24T10:49:18.742Z,326
2019-01-24T10:50:19.458Z,326
2019-01-24T10:51:20.174Z,331
2019-01-24T10:52:20.880Z,320
2019-01-24T10:53:21.588Z,320
2019-01-24T10:54:22.294Z,320
2019-01-24T10:55:23.004Z,309
2019-01-24T10:56:23.757Z,303
2019-01-24T10:57:24.716Z,309
2019-01-24T10:58:25.441Z,303
2019-01-24T10:59:26.254Z,309
2019-01-24T11:00:27.038Z,320
2019-01-24T11:01:27.755Z,331
2019-01-24T11:02:28.517Z,337
2019-01-24T11:03:29.221Z,337
2019-01-24T11:04:29.929Z,326
2019-01-24T11:05:30.636Z,326
2019-01-24T11:06:31.344Z,320
2019-01-24T11:07:32.055Z,320
2019-01-24T11:08:32.768Z,326
2019-01-24T11:09:33.474Z,331
2019-01-24T11:10:34.203Z,337
2019-01-24T11:11:34.970Z,337
2019-01-24T11:12:35.667Z,343
2019-01-24T11:13:36.885Z,331
2019-01-24T11:14:37.592Z,331
2019-01-24T11:15:38.303Z,337
2019-01-24T11:16:39.013Z,348
2019-01-24T11:17:39.710Z,354
2019-01-24T11:18:40.532Z,354
2019-01-24T11:19:41.253Z,354
2019-01-24T11:20:41.958Z,365
2019-01-24T11:21:42.677Z,376
2019-01-24T11:22:43.384Z,399
2019-01-24T11:23:44.143Z,410
2019-01-24T11:24:45.105Z,405
2019-01-24T11:25:45.826Z,399
2019-01-24T11:26:46.529Z,388
2019-01-24T11:27:47.242Z,365
2019-01-24T11:28:48.053Z,388
2019-01-24T11:29:48.769Z,388
2019-01-24T11:30:49.472Z,376
2019-01-24T11:31:50.177Z,376
2019-01-24T11:32:50.897Z,376
2019-01-24T11:33:51.947Z,388
2019-01-24T11:34:52.660Z,410
2019-01-24T11:35:53.383Z,433
2019-01-24T11:36:57.128Z,472
2019-01-24T11:37:54.818Z,489
2019-01-24T11:38:55.525Z,489
2019-01-24T11:39:56.267Z,511
2019-01-24T11:40:56.996Z,495
2019-01-24T11:41:57.708Z,478
2019-01-24T11:42:58.433Z,495
2019-01-24T11:43:59.247Z,455
2019-01-24T11:44:59.951Z,438
2019-01-24T11:46:00.658Z,461
2019-01-24T11:47:01.750Z,455
2019-01-24T11:48:02.451Z,461
2019-01-24T11:49:03.167Z,478
2019-01-24T11:50:03.939Z,478
2019-01-24T11:51:04.913Z,489
2019-01-24T11:52:05.617Z,489
2019-01-24T11:53:06.329Z,489
2019-01-24T11:54:07.036Z,489
2019-01-24T11:55:07.739Z,495
2019-01-24T11:56:08.515Z,489
2019-01-24T11:57:09.242Z,500
2019-01-24T11:58:09.952Z,495
2019-01-24T11:59:10.659Z,489
2019-01-24T12:00:11.387Z,495
2019-01-24T12:01:12.102Z,489
2019-01-24T12:02:12.814Z,483
2019-01-24T12:03:13.527Z,500
2019-01-24T12:04:14.237Z,511
2019-01-24T12:05:14.957Z,528
2019-01-24T12:06:15.674Z,523
2019-01-24T12:07:16.420Z,495
2019-01-24T12:08:17.131Z,478
2019-01-24T12:09:17.854Z,478
2019-01-24T12:10:18.562Z,489
2019-01-24T12:11:19.265Z,483
2019-01-24T12:12:19.983Z,483
2019-01-24T12:13:20.705Z,461
2019-01-24T12:14:21.421Z,472
2019-01-24T12:15:22.126Z,466
2019-01-24T12:16:22.841Z,461
2019-01-24T12:17:24.797Z,483
2019-01-24T12:18:24.325Z,483
2019-01-24T12:19:25.045Z,495
2019-01-24T12:20:25.748Z,489
2019-01-24T12:21:26.462Z,483
2019-01-24T12:22:27.168Z,450
2019-01-24T12:23:27.877Z,455
2019-01-24T12:24:28.588Z,455
2019-01-24T12:25:29.300Z,438
2019-01-24T12:26:30.014Z,466
2019-01-24T12:27:30.737Z,466
2019-01-24T12:28:31.948Z,450
2019-01-24T12:29:32.412Z,450
2019-01-24T12:30:33.122Z,450
2019-01-24T12:31:33.841Z,433
2019-01-24T12:32:34.559Z,427
2019-01-24T12:33:35.278Z,433
2019-01-24T12:34:35.995Z,421
2019-01-24T12:35:36.708Z,416
2019-01-24T12:36:37.420Z,393
2019-01-24T12:37:38.138Z,388
2019-01-24T12:38:38.850Z,376
2019-01-24T12:39:39.559Z,371
2019-01-24T12:40:40.262Z,371
2019-01-24T12:41:40.978Z,371
2019-01-24T12:42:41.681Z,360
2019-01-24T12:43:42.392Z,365
2019-01-24T12:44:43.098Z,371
2019-01-24T12:45:43.810Z,365
2019-01-24T12:46:44.520Z,360
2019-01-24T12:47:45.251Z,371
2019-01-24T12:48:47.195Z,382
2019-01-24T12:49:46.734Z,382
2019-01-24T12:50:47.441Z,382
2019-01-24T12:51:48.147Z,382
2019-01-24T12:52:48.863Z,376
2019-01-24T12:53:49.586Z,365
2019-01-24T12:54:50.296Z,371
2019-01-24T12:55:51.005Z,371
2019-01-24T12:56:51.716Z,376
2019-01-24T12:57:52.450Z,388
2019-01-24T12:58:53.140Z,388
2019-01-24T12:59:53.897Z,382
2019-01-24T13:00:54.621Z,371
2019-01-24T13:01:55.332Z,365
2019-01-24T13:02:56.045Z,360
2019-01-24T13:03:56.754Z,354
2019-01-24T13:04:57.626Z,348
2019-01-24T13:05:58.341Z,343
2019-01-24T13:06:59.052Z,337
2019-01-24T13:07:59.755Z,331
2019-01-24T13:09:00.484Z,343
2019-01-24T13:10:01.191Z,343
2019-01-24T13:11:01.897Z,343
2019-01-24T13:12:02.605Z,348
2019-01-24T13:13:03.317Z,354
2019-01-24T13:14:04.031Z,365
2019-01-24T13:15:04.748Z,371
2019-01-24T13:16:05.475Z,365
2019-01-24T13:17:06.188Z,343
2019-01-24T13:18:06.923Z,331
2019-01-24T13:19:07.612Z,315
2019-01-24T13:20:08.323Z,309
2019-01-24T13:21:09.097Z,303
2019-01-24T13:22:09.774Z,292
2019-01-24T13:23:10.526Z,281
2019-01-24T13:24:11.254Z,275
2019-01-24T13:25:11.970Z,264
2019-01-24T13:26:12.680Z,264
2019-01-24T13:27:13.401Z,264
2019-01-24T13:28:14.115Z,253
2019-01-24T13:29:14.819Z,241
2019-01-24T13:30:15.546Z,241
2019-01-24T13:31:16.255Z,236
2019-01-24T13:32:16.971Z,230
2019-01-24T13:33:17.676Z,230
2019-01-24T13:34:18.399Z,230
2019-01-24T13:35:19.376Z,230
2019-01-24T13:36:20.077Z,230
2019-01-24T13:37:25.765Z,225
2019-01-24T13:38:21.758Z,219
2019-01-24T13:39:22.477Z,213
2019-01-24T13:40:23.196Z,202
2019-01-24T13:41:23.912Z,196
2019-01-24T13:42:24.625Z,196
2019-01-24T13:43:25.443Z,191
2019-01-24T13:44:26.175Z,191
2019-01-24T13:45:26.891Z,191
2019-01-24T13:46:27.628Z,185
2019-01-24T13:47:28.332Z,180
2019-01-24T13:48:29.050Z,174
2019-01-24T13:49:29.752Z,174
2019-01-24T13:50:30.472Z,168
2019-01-24T13:51:31.177Z,168
2019-01-24T13:52:31.898Z,168
2019-01-24T13:53:32.609Z,174
2019-01-24T13:54:33.330Z,185
2019-01-24T13:55:34.193Z,191
2019-01-24T13:56:34.905Z,196
2019-01-24T13:57:35.613Z,202
2019-01-24T13:58:36.330Z,196
2019-01-24T13:59:37.044Z,191
2019-01-24T14:00:37.754Z,185
2019-01-24T14:01:38.471Z,180
2019-01-24T14:02:39.183Z,180
2019-01-24T14:03:42.361Z,180
2019-01-24T14:04:40.608Z,185
2019-01-24T14:05:41.327Z,191
2019-01-24T14:06:42.034Z,202
2019-01-24T14:07:42.744Z,208
2019-01-24T14:08:43.461Z,208
2019-01-24T14:09:44.170Z,208
2019-01-24T14:10:44.878Z,202
2019-01-24T14:11:45.696Z,191
2019-01-24T14:12:46.417Z,185
2019-01-24T14:13:47.121Z,180
2019-01-24T14:14:47.855Z,168
2019-01-24T14:15:48.563Z,168
2019-01-24T14:16:49.262Z,163
2019-01-24T14:17:49.968Z,168
2019-01-24T14:18:50.674Z,163
2019-01-24T14:19:51.393Z,168
2019-01-24T14:20:52.109Z,163
2019-01-24T14:21:52.828Z,163
2019-01-24T14:22:53.525Z,163
2019-01-24T14:23:54.509Z,157
2019-01-24T14:24:55.264Z,157
2019-01-24T14:25:55.981Z,157
2019-01-24T14:26:56.688Z,151
2019-01-24T14:27:57.401Z,146
2019-01-24T14:28:58.112Z,140
2019-01-24T14:29:58.888Z,140